sensor_id;sensor_type;location;lat;lon;timestamp;pressure;altitude;pressure_sealevel;temperature;humidity
9764;BME280;4921;43.214;27.936;2023-08-17T00:00:18;100846.09;;;28.41;71.09
9764;BME280;4921;43.214;27.936;2023-08-17T00:02:45;100843.41;;;28.41;71.03
9764;BME280;4921;43.214;27.936;2023-08-17T00:05:12;100847.97;;;28.41;70.82
9764;BME280;4921;43.214;27.936;2023-08-17T00:07:39;100844.34;;;28.35;70.90
9764;BME280;4921;43.214;27.936;2023-08-17T00:10:06;100838.81;;;28.42;70.84
9764;BME280;4921;43.214;27.936;2023-08-17T00:12:33;100841.28;;;28.43;69.84
9764;BME280;4921;43.214;27.936;2023-08-17T00:15:02;100848.56;;;28.43;70.35
9764;BME280;4921;43.214;27.936;2023-08-17T00:17:29;100848.81;;;28.41;70.27
9764;BME280;4921;43.214;27.936;2023-08-17T00:19:56;100844.44;;;28.40;69.31
9764;BME280;4921;43.214;27.936;2023-08-17T00:22:23;100852.56;;;28.40;68.83
9764;BME280;4921;43.214;27.936;2023-08-17T00:24:50;100856.34;;;28.39;68.44
9764;BME280;4921;43.214;27.936;2023-08-17T00:27:17;100853.63;;;28.39;68.62
9764;BME280;4921;43.214;27.936;2023-08-17T00:29:44;100846.81;;;28.37;67.93
9764;BME280;4921;43.214;27.936;2023-08-17T00:32:13;100854.09;;;28.36;67.52
9764;BME280;4921;43.214;27.936;2023-08-17T00:34:40;100858.69;;;28.36;67.10
9764;BME280;4921;43.214;27.936;2023-08-17T00:37:07;100850.19;;;28.32;67.16
9764;BME280;4921;43.214;27.936;2023-08-17T00:39:34;100860.56;;;28.35;67.26
9764;BME280;4921;43.214;27.936;2023-08-17T00:42:01;100859.16;;;28.33;66.57
9764;BME280;4921;43.214;27.936;2023-08-17T00:44:28;100858.31;;;28.32;67.06
9764;BME280;4921;43.214;27.936;2023-08-17T00:46:55;100846.91;;;28.30;67.44
9764;BME280;4921;43.214;27.936;2023-08-17T00:49:24;100849.84;;;28.29;67.22
9764;BME280;4921;43.214;27.936;2023-08-17T00:51:51;100854.66;;;28.27;67.50
9764;BME280;4921;43.214;27.936;2023-08-17T00:54:23;100860.91;;;28.27;67.57
9764;BME280;4921;43.214;27.936;2023-08-17T00:56:52;100859.25;;;28.26;66.65
9764;BME280;4921;43.214;27.936;2023-08-17T00:59:19;100852.19;;;28.25;66.81
9764;BME280;4921;43.214;27.936;2023-08-17T01:01:47;100850.28;;;28.14;64.71
9764;BME280;4921;43.214;27.936;2023-08-17T01:04:14;100851.81;;;28.22;64.41
9764;BME280;4921;43.214;27.936;2023-08-17T01:06:43;100849.94;;;28.22;64.10
9764;BME280;4921;43.214;27.936;2023-08-17T01:09:10;100849.72;;;28.24;63.73
9764;BME280;4921;43.214;27.936;2023-08-17T01:11:40;100840.75;;;28.23;64.89
9764;BME280;4921;43.214;27.936;2023-08-17T01:14:11;100839.72;;;28.24;64.78
9764;BME280;4921;43.214;27.936;2023-08-17T01:16:48;100847.59;;;28.26;63.72
9764;BME280;4921;43.214;27.936;2023-08-17T01:19:24;100843.84;;;28.27;64.11
9764;BME280;4921;43.214;27.936;2023-08-17T01:21:57;100835.50;;;28.28;62.91
9764;BME280;4921;43.214;27.936;2023-08-17T01:24:28;100835.50;;;28.28;62.76
9764;BME280;4921;43.214;27.936;2023-08-17T01:26:55;100819.25;;;28.28;63.06
9764;BME280;4921;43.214;27.936;2023-08-17T01:29:22;100825.25;;;28.30;62.41
9764;BME280;4921;43.214;27.936;2023-08-17T01:31:54;100825.25;;;28.30;62.16
9764;BME280;4921;43.214;27.936;2023-08-17T01:34:28;100814.19;;;28.20;62.56
9764;BME280;4921;43.214;27.936;2023-08-17T01:37:00;100821.72;;;28.30;62.52
9764;BME280;4921;43.214;27.936;2023-08-17T01:39:34;100825.50;;;28.29;63.16
9764;BME280;4921;43.214;27.936;2023-08-17T01:42:05;100815.50;;;28.29;63.39
9764;BME280;4921;43.214;27.936;2023-08-17T01:44:32;100821.97;;;28.28;63.42
9764;BME280;4921;43.214;27.936;2023-08-17T01:46:59;100825.94;;;28.26;64.25
9764;BME280;4921;43.214;27.936;2023-08-17T01:49:26;100824.06;;;28.26;65.05
9764;BME280;4921;43.214;27.936;2023-08-17T01:51:54;100815.47;;;28.18;65.67
9764;BME280;4921;43.214;27.936;2023-08-17T01:54:21;100817.09;;;28.19;66.51
9764;BME280;4921;43.214;27.936;2023-08-17T01:56:50;100815.94;;;28.15;67.21
9764;BME280;4921;43.214;27.936;2023-08-17T01:59:17;100821.00;;;28.11;67.95
9764;BME280;4921;43.214;27.936;2023-08-17T02:01:44;100819.31;;;28.10;68.68
9764;BME280;4921;43.214;27.936;2023-08-17T02:04:11;100801.22;;;27.99;69.02
9764;BME280;4921;43.214;27.936;2023-08-17T02:06:38;100814.50;;;28.01;68.94
9764;BME280;4921;43.214;27.936;2023-08-17T02:09:05;100820.94;;;28.00;69.09
9764;BME280;4921;43.214;27.936;2023-08-17T02:11:32;100816.59;;;27.99;68.66
9764;BME280;4921;43.214;27.936;2023-08-17T02:14:01;100819.72;;;27.95;69.06
9764;BME280;4921;43.214;27.936;2023-08-17T02:16:28;100820.41;;;27.91;69.39
9764;BME280;4921;43.214;27.936;2023-08-17T02:18:54;100813.13;;;27.91;69.04
9764;BME280;4921;43.214;27.936;2023-08-17T02:21:22;100813.59;;;27.88;69.02
9764;BME280;4921;43.214;27.936;2023-08-17T02:23:49;100805.13;;;27.85;68.97
9764;BME280;4921;43.214;27.936;2023-08-17T02:26:16;100813.47;;;27.83;69.56
9764;BME280;4921;43.214;27.936;2023-08-17T02:28:43;100806.19;;;27.84;69.37
9764;BME280;4921;43.214;27.936;2023-08-17T02:31:11;100802.41;;;27.85;69.93
9764;BME280;4921;43.214;27.936;2023-08-17T02:33:38;100808.66;;;27.85;69.95
9764;BME280;4921;43.214;27.936;2023-08-17T02:36:06;100814.06;;;27.85;70.32
9764;BME280;4921;43.214;27.936;2023-08-17T02:38:33;100811.00;;;27.82;70.42
9764;BME280;4921;43.214;27.936;2023-08-17T02:41:00;100806.41;;;27.82;71.32
9764;BME280;4921;43.214;27.936;2023-08-17T02:43:27;100805.34;;;27.83;71.48
9764;BME280;4921;43.214;27.936;2023-08-17T02:45:54;100805.34;;;27.83;71.27
9764;BME280;4921;43.214;27.936;2023-08-17T02:48:22;100804.16;;;27.79;71.89
9764;BME280;4921;43.214;27.936;2023-08-17T02:50:49;100809.34;;;27.81;72.55
9764;BME280;4921;43.214;27.936;2023-08-17T02:53:16;100815.34;;;27.83;72.52
9764;BME280;4921;43.214;27.936;2023-08-17T02:55:43;100803.09;;;27.80;72.79
9764;BME280;4921;43.214;27.936;2023-08-17T02:58:10;100806.63;;;27.81;73.24
9764;BME280;4921;43.214;27.936;2023-08-17T03:00:37;100807.22;;;27.83;73.21
9764;BME280;4921;43.214;27.936;2023-08-17T03:03:04;100807.22;;;27.83;73.62
9764;BME280;4921;43.214;27.936;2023-08-17T03:05:33;100805.34;;;27.83;73.90
9764;BME280;4921;43.214;27.936;2023-08-17T03:08:00;100808.91;;;27.84;74.87
9764;BME280;4921;43.214;27.936;2023-08-17T03:10:27;100812.19;;;27.86;75.13
9764;BME280;4921;43.214;27.936;2023-08-17T03:12:54;100814.91;;;27.86;75.86
9764;BME280;4921;43.214;27.936;2023-08-17T03:15:21;100812.41;;;27.84;76.59
9764;BME280;4921;43.214;27.936;2023-08-17T03:17:48;100809.94;;;27.83;76.48
9764;BME280;4921;43.214;27.936;2023-08-17T03:20:15;100807.47;;;27.81;77.02
9764;BME280;4921;43.214;27.936;2023-08-17T03:22:43;100808.31;;;27.82;77.81
9764;BME280;4921;43.214;27.936;2023-08-17T03:25:10;100811.22;;;27.80;77.30
9764;BME280;4921;43.214;27.936;2023-08-17T03:27:37;100806.28;;;27.77;77.00
9764;BME280;4921;43.214;27.936;2023-08-17T03:30:06;100813.56;;;27.77;77.18
9764;BME280;4921;43.214;27.936;2023-08-17T03:32:33;100801.19;;;27.69;77.89
9764;BME280;4921;43.214;27.936;2023-08-17T03:35:00;100807.56;;;27.75;78.59
9764;BME280;4921;43.214;27.936;2023-08-17T03:37:27;100808.59;;;27.74;78.44
9764;BME280;4921;43.214;27.936;2023-08-17T03:39:55;100822.13;;;27.74;78.37
9764;BME280;4921;43.214;27.936;2023-08-17T03:42:22;100821.53;;;27.72;77.84
9764;BME280;4921;43.214;27.936;2023-08-17T03:44:49;100815.88;;;27.73;77.20
9764;BME280;4921;43.214;27.936;2023-08-17T03:47:17;100824.63;;;27.75;77.23
9764;BME280;4921;43.214;27.936;2023-08-17T03:49:44;100820.84;;;27.76;76.31
9764;BME280;4921;43.214;27.936;2023-08-17T03:52:12;100820.41;;;27.79;76.56
9764;BME280;4921;43.214;27.936;2023-08-17T03:54:39;100822.72;;;27.76;76.78
9764;BME280;4921;43.214;27.936;2023-08-17T03:57:07;100834.13;;;27.78;77.61
9764;BME280;4921;43.214;27.936;2023-08-17T03:59:34;100840.13;;;27.80;77.79
9764;BME280;4921;43.214;27.936;2023-08-17T04:02:01;100846.94;;;27.82;77.06
9764;BME280;4921;43.214;27.936;2023-08-17T04:04:28;100846.94;;;27.82;76.74
9764;BME280;4921;43.214;27.936;2023-08-17T04:06:55;100838.41;;;27.85;76.61
9764;BME280;4921;43.214;27.936;2023-08-17T04:09:22;100844.41;;;27.87;77.20
9764;BME280;4921;43.214;27.936;2023-08-17T04:11:49;100852.88;;;27.91;77.75
9764;BME280;4921;43.214;27.936;2023-08-17T04:14:17;100847.25;;;27.92;78.54
9764;BME280;4921;43.214;27.936;2023-08-17T04:16:44;100841.84;;;27.92;78.69
9764;BME280;4921;43.214;27.936;2023-08-17T04:19:11;100842.19;;;27.96;78.71
9764;BME280;4921;43.214;27.936;2023-08-17T04:21:38;100844.69;;;27.98;78.68
9764;BME280;4921;43.214;27.936;2023-08-17T04:24:06;100843.66;;;27.99;77.85
9764;BME280;4921;43.214;27.936;2023-08-17T04:26:33;100845.66;;;28.03;78.24
9764;BME280;4921;43.214;27.936;2023-08-17T04:29:00;100850.59;;;28.06;77.65
9764;BME280;4921;43.214;27.936;2023-08-17T04:31:29;100845.78;;;28.08;77.87
9764;BME280;4921;43.214;27.936;2023-08-17T04:33:56;100843.47;;;28.12;77.93
9764;BME280;4921;43.214;27.936;2023-08-17T04:36:23;100849.69;;;28.12;78.80
9764;BME280;4921;43.214;27.936;2023-08-17T04:38:50;100853.22;;;28.13;78.86
9764;BME280;4921;43.214;27.936;2023-08-17T04:41:17;100855.22;;;28.17;79.06
9764;BME280;4921;43.214;27.936;2023-08-17T04:43:43;100846.66;;;28.20;77.81
9764;BME280;4921;43.214;27.936;2023-08-17T04:46:12;100848.44;;;28.26;77.10
9764;BME280;4921;43.214;27.936;2023-08-17T04:48:40;100859.00;;;28.28;76.46
9764;BME280;4921;43.214;27.936;2023-08-17T04:51:07;100856.09;;;28.29;75.63
9764;BME280;4921;43.214;27.936;2023-08-17T04:53:35;100857.38;;;28.27;76.38
9764;BME280;4921;43.214;27.936;2023-08-17T04:56:02;100859.38;;;28.31;76.13
9764;BME280;4921;43.214;27.936;2023-08-17T04:58:29;100856.78;;;28.36;75.90
9764;BME280;4921;43.214;27.936;2023-08-17T05:00:57;100850.44;;;28.42;75.05
9764;BME280;4921;43.214;27.936;2023-08-17T05:03:25;100855.16;;;28.47;74.70
9764;BME280;4921;43.214;27.936;2023-08-17T05:05:53;100846.59;;;28.50;74.40
9764;BME280;4921;43.214;27.936;2023-08-17T05:08:20;100861.16;;;28.49;75.70
9764;BME280;4921;43.214;27.936;2023-08-17T05:10:47;100851.16;;;28.49;77.05
9764;BME280;4921;43.214;27.936;2023-08-17T05:13:15;100846.13;;;28.53;77.48
9764;BME280;4921;43.214;27.936;2023-08-17T05:15:42;100847.94;;;28.59;78.52
9764;BME280;4921;43.214;27.936;2023-08-17T05:18:09;100846.84;;;28.60;78.84
9764;BME280;4921;43.214;27.936;2023-08-17T05:20:36;100841.22;;;28.61;79.13
9764;BME280;4921;43.214;27.936;2023-08-17T05:23:05;100840.75;;;28.64;79.59
9764;BME280;4921;43.214;27.936;2023-08-17T05:25:32;100837.56;;;28.67;80.46
9764;BME280;4921;43.214;27.936;2023-08-17T05:27:59;100841.94;;;28.80;79.76
9764;BME280;4921;43.214;27.936;2023-08-17T05:30:26;100845.47;;;28.81;79.70
9764;BME280;4921;43.214;27.936;2023-08-17T05:32:53;100838.75;;;28.83;79.01
9764;BME280;4921;43.214;27.936;2023-08-17T05:35:20;100840.16;;;28.86;78.41
9764;BME280;4921;43.214;27.936;2023-08-17T05:37:47;100845.34;;;28.87;78.44
9764;BME280;4921;43.214;27.936;2023-08-17T05:40:15;100853.81;;;28.91;78.07
9764;BME280;4921;43.214;27.936;2023-08-17T05:42:43;100845.81;;;28.84;77.79
9764;BME280;4921;43.214;27.936;2023-08-17T05:45:10;100843.94;;;28.85;77.16
9764;BME280;4921;43.214;27.936;2023-08-17T05:47:37;100849.81;;;28.82;77.84
9764;BME280;4921;43.214;27.936;2023-08-17T05:50:05;100835.81;;;28.85;77.64
9764;BME280;4921;43.214;27.936;2023-08-17T05:52:32;100842.53;;;28.94;77.59
9764;BME280;4921;43.214;27.936;2023-08-17T05:55:00;100850.28;;;29.02;77.23
9764;BME280;4921;43.214;27.936;2023-08-17T05:57:28;100852.28;;;29.06;77.65
9764;BME280;4921;43.214;27.936;2023-08-17T05:59:55;100850.41;;;29.07;77.96
9764;BME280;4921;43.214;27.936;2023-08-17T06:02:22;100856.06;;;29.17;77.39
9764;BME280;4921;43.214;27.936;2023-08-17T06:04:50;100846.16;;;29.11;76.67
9764;BME280;4921;43.214;27.936;2023-08-17T06:07:17;100845.56;;;29.20;76.95
9764;BME280;4921;43.214;27.936;2023-08-17T06:09:44;100842.25;;;29.30;76.51
9764;BME280;4921;43.214;27.936;2023-08-17T06:12:11;100850.28;;;29.25;77.10
9764;BME280;4921;43.214;27.936;2023-08-17T06:14:39;100844.13;;;29.29;76.76
9764;BME280;4921;43.214;27.936;2023-08-17T06:17:07;100841.53;;;29.34;76.18
9764;BME280;4921;43.214;27.936;2023-08-17T06:19:34;100851.09;;;29.37;76.04
9764;BME280;4921;43.214;27.936;2023-08-17T06:22:01;100852.13;;;29.36;76.46
9764;BME280;4921;43.214;27.936;2023-08-17T06:24:28;100844.13;;;29.41;75.97
9764;BME280;4921;43.214;27.936;2023-08-17T06:26:55;100848.84;;;29.46;76.42
9764;BME280;4921;43.214;27.936;2023-08-17T06:29:22;100854.69;;;29.54;76.59
9764;BME280;4921;43.214;27.936;2023-08-17T06:31:50;100850.00;;;29.50;76.95
9764;BME280;4921;43.214;27.936;2023-08-17T06:34:17;100854.25;;;29.34;76.96
9764;BME280;4921;43.214;27.936;2023-08-17T06:36:56;100845.16;;;29.40;77.27
9764;BME280;4921;43.214;27.936;2023-08-17T06:39:23;100838.56;;;29.48;77.43
9764;BME280;4921;43.214;27.936;2023-08-17T06:41:50;100855.06;;;29.46;76.08
9764;BME280;4921;43.214;27.936;2023-08-17T06:44:17;100846.78;;;29.53;76.07
9764;BME280;4921;43.214;27.936;2023-08-17T06:46:44;100845.59;;;29.60;75.28
9764;BME280;4921;43.214;27.936;2023-08-17T06:49:13;100852.28;;;29.69;74.94
9764;BME280;4921;43.214;27.936;2023-08-17T06:51:40;100850.31;;;29.65;75.32
9764;BME280;4921;43.214;27.936;2023-08-17T06:54:07;100854.63;;;29.66;75.98
9764;BME280;4921;43.214;27.936;2023-08-17T06:56:34;100861.38;;;29.63;75.79
9764;BME280;4921;43.214;27.936;2023-08-17T06:59:02;100842.50;;;29.80;74.92
9764;BME280;4921;43.214;27.936;2023-08-17T07:01:29;100844.41;;;29.96;73.30
9764;BME280;4921;43.214;27.936;2023-08-17T07:03:56;100837.78;;;30.03;73.27
9764;BME280;4921;43.214;27.936;2023-08-17T07:06:25;100848.53;;;30.15;73.18
9764;BME280;4921;43.214;27.936;2023-08-17T07:08:52;100846.91;;;30.14;71.95
9764;BME280;4921;43.214;27.936;2023-08-17T07:11:19;100839.19;;;30.06;72.93
9764;BME280;4921;43.214;27.936;2023-08-17T07:13:46;100866.50;;;30.16;71.73
9764;BME280;4921;43.214;27.936;2023-08-17T07:16:13;100871.50;;;30.24;72.31
9764;BME280;4921;43.214;27.936;2023-08-17T07:18:40;100874.53;;;30.39;72.14
9764;BME280;4921;43.214;27.936;2023-08-17T07:21:07;100873.06;;;30.32;71.12
9764;BME280;4921;43.214;27.936;2023-08-17T07:23:36;100879.72;;;30.41;69.70
9764;BME280;4921;43.214;27.936;2023-08-17T07:26:03;100885.31;;;30.51;69.31
9764;BME280;4921;43.214;27.936;2023-08-17T07:28:30;100880.56;;;30.58;68.16
9764;BME280;4921;43.214;27.936;2023-08-17T07:30:57;100872.88;;;30.55;68.00
9764;BME280;4921;43.214;27.936;2023-08-17T07:33:24;100892.97;;;30.70;68.35
9764;BME280;4921;43.214;27.936;2023-08-17T07:35:51;100885.97;;;30.74;68.83
9764;BME280;4921;43.214;27.936;2023-08-17T07:38:18;100897.59;;;30.86;67.80
9764;BME280;4921;43.214;27.936;2023-08-17T07:40:47;100896.84;;;30.91;67.50
9764;BME280;4921;43.214;27.936;2023-08-17T07:43:14;100901.03;;;30.82;68.10
9764;BME280;4921;43.214;27.936;2023-08-17T07:45:41;100898.88;;;30.67;68.84
9764;BME280;4921;43.214;27.936;2023-08-17T07:48:08;100893.28;;;30.74;69.36
9764;BME280;4921;43.214;27.936;2023-08-17T07:50:35;100895.38;;;30.83;69.92
9764;BME280;4921;43.214;27.936;2023-08-17T07:53:02;100896.25;;;30.72;69.47
9764;BME280;4921;43.214;27.936;2023-08-17T07:55:29;100895.00;;;30.80;68.30
9764;BME280;4921;43.214;27.936;2023-08-17T07:57:57;100892.72;;;30.88;67.22
9764;BME280;4921;43.214;27.936;2023-08-17T08:00:24;100898.81;;;30.79;66.30
9764;BME280;4921;43.214;27.936;2023-08-17T08:02:51;100887.31;;;30.88;65.68
9764;BME280;4921;43.214;27.936;2023-08-17T08:05:18;100883.09;;;30.98;65.85
9764;BME280;4921;43.214;27.936;2023-08-17T08:07:45;100885.19;;;31.12;65.31
9764;BME280;4921;43.214;27.936;2023-08-17T08:10:12;100878.66;;;31.30;63.83
9764;BME280;4921;43.214;27.936;2023-08-17T08:12:39;100894.28;;;31.39;62.72
9764;BME280;4921;43.214;27.936;2023-08-17T08:15:08;100885.28;;;31.17;63.06
9764;BME280;4921;43.214;27.936;2023-08-17T08:17:35;100886.06;;;31.34;63.73
9764;BME280;4921;43.214;27.936;2023-08-17T08:20:02;100884.66;;;31.48;60.58
9764;BME280;4921;43.214;27.936;2023-08-17T08:22:30;100885.22;;;31.50;58.46
9764;BME280;4921;43.214;27.936;2023-08-17T08:24:57;100894.75;;;31.53;56.16
9764;BME280;4921;43.214;27.936;2023-08-17T08:27:24;100891.34;;;31.41;58.75
9764;BME280;4921;43.214;27.936;2023-08-17T08:29:51;100894.63;;;31.43;57.46
9764;BME280;4921;43.214;27.936;2023-08-17T08:32:38;100880.78;;;31.44;57.54
9764;BME280;4921;43.214;27.936;2023-08-17T08:35:05;100898.88;;;31.55;57.39
9764;BME280;4921;43.214;27.936;2023-08-17T08:37:32;100895.00;;;31.51;56.63
9764;BME280;4921;43.214;27.936;2023-08-17T08:39:59;100891.50;;;31.34;55.95
9764;BME280;4921;43.214;27.936;2023-08-17T08:42:27;100895.28;;;31.50;55.64
9764;BME280;4921;43.214;27.936;2023-08-17T08:44:54;100882.81;;;31.54;55.59
9764;BME280;4921;43.214;27.936;2023-08-17T08:47:21;100889.72;;;31.62;55.76
9764;BME280;4921;43.214;27.936;2023-08-17T08:49:58;100885.97;;;31.68;55.17
9764;BME280;4921;43.214;27.936;2023-08-17T08:52:32;100885.16;;;31.67;55.78
9764;BME280;4921;43.214;27.936;2023-08-17T08:55:11;100885.34;;;31.60;55.15
9764;BME280;4921;43.214;27.936;2023-08-17T08:57:49;100882.03;;;31.80;54.97
9764;BME280;4921;43.214;27.936;2023-08-17T09:00:17;100872.09;;;31.91;52.76
9764;BME280;4921;43.214;27.936;2023-08-17T09:02:45;100880.25;;;31.91;51.30
9764;BME280;4921;43.214;27.936;2023-08-17T09:05:13;100875.97;;;31.73;52.31
9764;BME280;4921;43.214;27.936;2023-08-17T09:07:42;100902.69;;;31.76;52.55
9764;BME280;4921;43.214;27.936;2023-08-17T09:10:10;100881.78;;;31.82;51.86
9764;BME280;4921;43.214;27.936;2023-08-17T09:12:37;100897.44;;;31.70;50.75
9764;BME280;4921;43.214;27.936;2023-08-17T09:15:06;100898.56;;;31.74;49.87
9764;BME280;4921;43.214;27.936;2023-08-17T09:17:33;100886.59;;;31.75;50.21
9764;BME280;4921;43.214;27.936;2023-08-17T09:20:01;100876.03;;;31.78;50.54
9764;BME280;4921;43.214;27.936;2023-08-17T09:22:37;100889.66;;;31.78;49.02
9764;BME280;4921;43.214;27.936;2023-08-17T09:25:05;100889.13;;;31.81;48.83
9764;BME280;4921;43.214;27.936;2023-08-17T09:27:33;100876.50;;;31.70;50.39
9764;BME280;4921;43.214;27.936;2023-08-17T09:30:05;100892.72;;;31.87;50.82
9764;BME280;4921;43.214;27.936;2023-08-17T09:32:33;100891.63;;;31.88;50.19
9764;BME280;4921;43.214;27.936;2023-08-17T09:35:01;100891.97;;;31.91;50.27
9764;BME280;4921;43.214;27.936;2023-08-17T09:37:29;100882.34;;;32.05;49.04
9764;BME280;4921;43.214;27.936;2023-08-17T09:39:56;100905.31;;;32.14;48.83
9764;BME280;4921;43.214;27.936;2023-08-17T09:42:23;100887.09;;;32.20;48.79
9764;BME280;4921;43.214;27.936;2023-08-17T09:44:51;100879.81;;;32.25;49.54
9764;BME280;4921;43.214;27.936;2023-08-17T09:47:20;100884.22;;;32.31;50.34
9764;BME280;4921;43.214;27.936;2023-08-17T09:49:48;100878.06;;;32.41;49.14
9764;BME280;4921;43.214;27.936;2023-08-17T09:52:16;100892.97;;;32.60;48.48
9764;BME280;4921;43.214;27.936;2023-08-17T09:54:43;100889.97;;;32.62;44.97
9764;BME280;4921;43.214;27.936;2023-08-17T09:57:13;100888.28;;;32.56;46.62
9764;BME280;4921;43.214;27.936;2023-08-17T09:59:40;100889.34;;;32.50;45.16
9764;BME280;4921;43.214;27.936;2023-08-17T10:02:11;100879.19;;;32.45;44.87
9764;BME280;4921;43.214;27.936;2023-08-17T10:04:44;100888.91;;;32.36;45.80
9764;BME280;4921;43.214;27.936;2023-08-17T10:07:12;100885.63;;;32.34;46.49
9764;BME280;4921;43.214;27.936;2023-08-17T10:09:43;100885.03;;;32.59;46.57
9764;BME280;4921;43.214;27.936;2023-08-17T10:12:15;100888.34;;;32.61;46.97
9764;BME280;4921;43.214;27.936;2023-08-17T10:14:49;100888.94;;;32.99;47.71
9764;BME280;4921;43.214;27.936;2023-08-17T10:17:26;100882.44;;;33.11;48.06
9764;BME280;4921;43.214;27.936;2023-08-17T10:19:57;100890.78;;;33.36;46.32
9764;BME280;4921;43.214;27.936;2023-08-17T10:22:29;100886.34;;;33.25;45.49
9764;BME280;4921;43.214;27.936;2023-08-17T10:24:58;100889.47;;;33.48;45.57
9764;BME280;4921;43.214;27.936;2023-08-17T10:27:27;100885.59;;;33.39;45.61
9764;BME280;4921;43.214;27.936;2023-08-17T10:29:54;100889.97;;;33.45;46.12
9764;BME280;4921;43.214;27.936;2023-08-17T10:32:23;100885.13;;;33.52;46.30
9764;BME280;4921;43.214;27.936;2023-08-17T10:34:51;100876.50;;;33.24;46.78
9764;BME280;4921;43.214;27.936;2023-08-17T10:37:20;100876.19;;;33.15;47.10
9764;BME280;4921;43.214;27.936;2023-08-17T10:39:49;100886.69;;;32.96;46.87
9764;BME280;4921;43.214;27.936;2023-08-17T10:42:30;100894.31;;;32.94;49.18
9764;BME280;4921;43.214;27.936;2023-08-17T10:44:58;100877.03;;;32.79;48.43
9764;BME280;4921;43.214;27.936;2023-08-17T10:47:29;100881.41;;;32.85;47.75
9764;BME280;4921;43.214;27.936;2023-08-17T10:49:58;100873.78;;;32.82;48.71
9764;BME280;4921;43.214;27.936;2023-08-17T10:52:29;100875.59;;;32.40;50.14
9764;BME280;4921;43.214;27.936;2023-08-17T10:54:59;100875.56;;;32.34;51.11
9764;BME280;4921;43.214;27.936;2023-08-17T10:57:32;100875.09;;;32.16;50.75
9764;BME280;4921;43.214;27.936;2023-08-17T11:00:14;100870.06;;;32.03;52.48
9764;BME280;4921;43.214;27.936;2023-08-17T11:02:45;100869.09;;;32.14;53.49
9764;BME280;4921;43.214;27.936;2023-08-17T11:05:12;100870.97;;;32.13;52.97
9764;BME280;4921;43.214;27.936;2023-08-17T11:07:42;100875.78;;;32.28;53.50
9764;BME280;4921;43.214;27.936;2023-08-17T11:10:27;100866.13;;;32.15;54.53
9764;BME280;4921;43.214;27.936;2023-08-17T11:12:55;100864.06;;;32.01;55.02
9764;BME280;4921;43.214;27.936;2023-08-17T11:15:25;100867.88;;;32.00;55.45
9764;BME280;4921;43.214;27.936;2023-08-17T11:17:52;100844.03;;;31.90;55.34
9764;BME280;4921;43.214;27.936;2023-08-17T11:20:19;100857.34;;;31.87;56.62
9764;BME280;4921;43.214;27.936;2023-08-17T11:22:47;100881.41;;;31.51;57.08
9764;BME280;4921;43.214;27.936;2023-08-17T11:25:14;100872.13;;;31.47;57.72
9764;BME280;4921;43.214;27.936;2023-08-17T11:27:41;100869.97;;;31.49;57.97
9764;BME280;4921;43.214;27.936;2023-08-17T11:30:10;100866.69;;;31.47;58.27
9764;BME280;4921;43.214;27.936;2023-08-17T11:32:37;100862.78;;;31.22;60.61
9764;BME280;4921;43.214;27.936;2023-08-17T11:35:05;100871.41;;;31.35;61.00
9764;BME280;4921;43.214;27.936;2023-08-17T11:37:32;100865.97;;;31.35;61.70
9764;BME280;4921;43.214;27.936;2023-08-17T11:40:00;100868.09;;;31.50;60.46
9764;BME280;4921;43.214;27.936;2023-08-17T11:42:27;100863.09;;;31.64;59.59
9764;BME280;4921;43.214;27.936;2023-08-17T11:44:55;100871.19;;;31.58;57.20
9764;BME280;4921;43.214;27.936;2023-08-17T11:47:21;100862.28;;;31.68;58.67
9764;BME280;4921;43.214;27.936;2023-08-17T11:49:48;100862.72;;;31.38;59.09
9764;BME280;4921;43.214;27.936;2023-08-17T11:52:16;100867.56;;;31.53;59.39
9764;BME280;4921;43.214;27.936;2023-08-17T11:54:43;100866.38;;;31.66;59.65
9764;BME280;4921;43.214;27.936;2023-08-17T11:57:11;100870.63;;;31.56;59.41
9764;BME280;4921;43.214;27.936;2023-08-17T11:59:38;100873.13;;;31.63;60.00
9764;BME280;4921;43.214;27.936;2023-08-17T12:02:05;100860.53;;;31.79;58.17
9764;BME280;4921;43.214;27.936;2023-08-17T12:04:32;100866.19;;;31.72;59.41
9764;BME280;4921;43.214;27.936;2023-08-17T12:06:59;100853.47;;;31.56;59.45
9764;BME280;4921;43.214;27.936;2023-08-17T12:09:26;100849.03;;;31.72;60.36
9764;BME280;4921;43.214;27.936;2023-08-17T12:12:00;100858.81;;;31.94;60.12
9764;BME280;4921;43.214;27.936;2023-08-17T12:14:28;100854.56;;;32.03;58.04
9764;BME280;4921;43.214;27.936;2023-08-17T12:16:55;100856.72;;;32.01;58.43
9764;BME280;4921;43.214;27.936;2023-08-17T12:19:24;100847.88;;;32.16;58.32
9764;BME280;4921;43.214;27.936;2023-08-17T12:21:52;100856.16;;;32.26;56.78
9764;BME280;4921;43.214;27.936;2023-08-17T12:24:19;100855.03;;;32.22;57.35
9764;BME280;4921;43.214;27.936;2023-08-17T12:26:46;100859.09;;;32.19;56.09
9764;BME280;4921;43.214;27.936;2023-08-17T12:29:14;100868.63;;;31.95;57.03
9764;BME280;4921;43.214;27.936;2023-08-17T12:31:42;100861.09;;;32.02;55.64
9764;BME280;4921;43.214;27.936;2023-08-17T12:34:09;100867.03;;;32.26;56.33
9764;BME280;4921;43.214;27.936;2023-08-17T12:36:36;100868.25;;;32.40;54.73
9764;BME280;4921;43.214;27.936;2023-08-17T12:39:04;100867.34;;;32.56;51.77
9764;BME280;4921;43.214;27.936;2023-08-17T12:41:31;100864.41;;;32.68;51.78
9764;BME280;4921;43.214;27.936;2023-08-17T12:43:58;100862.22;;;32.65;52.89
9764;BME280;4921;43.214;27.936;2023-08-17T12:46:25;100855.13;;;32.64;53.67
9764;BME280;4921;43.214;27.936;2023-08-17T12:48:53;100862.56;;;32.73;52.79
9764;BME280;4921;43.214;27.936;2023-08-17T12:51:20;100855.94;;;32.64;51.04
9764;BME280;4921;43.214;27.936;2023-08-17T12:53:47;100864.41;;;32.68;52.02
9764;BME280;4921;43.214;27.936;2023-08-17T12:56:14;100859.63;;;32.48;50.78
9764;BME280;4921;43.214;27.936;2023-08-17T12:58:41;100850.50;;;32.32;51.27
9764;BME280;4921;43.214;27.936;2023-08-17T13:01:08;100851.81;;;32.30;50.93
9764;BME280;4921;43.214;27.936;2023-08-17T13:03:35;100844.00;;;32.39;50.61